Impacts METAR Board INFO
IDs:

KCVG - Cincinnati Intl, KY, US

Updated at: 1445 UTC 22 Feb 2018
Potential Impact None Slight Moderate High
Time22/02Z 22/03Z 22/04Z 22/05Z 22/06Z 22/07Z 22/08Z 22/09Z 22/10Z 22/11Z 22/12Z 22/13Z 22/14Z
VIS 7 6 6 4 3 4 3 3 5 7 10
CIG 6 7 7 9 9 8 8 8 7 8 8
CoverOVCOVCOVCOVCOVCOVCOVCOVCOVCOVCOVC
FltCatIFRIFRIFRIFRIFRIFRIFRIFRIFRIFRIFR
WX-RA-RA BR-RA BRRA BR+RA BRRA BR+RA BRRA BR-RA BR-RA--
WDir8050303040405050608090
WSpd 12 11 15 15 15 16 19 14 17 17 16
WGst -- -- -- -- -- -- -- -- -- -- 24
Raw hourly METARs


KCVG 220352Z 08012KT 7SM -RA BKN006 BKN055 OVC070 06/06 A3043 RMK AO2 SLP304 P0006 T00610061 $
KCVG 220452Z 05011KT 6SM -RA BR BKN007 BKN044 OVC070 06/06 A3043 RMK AO2 SLP305 P0012 T00610061 402000006 $
KCVG 220552Z 03015KT 6SM -RA BR OVC007 06/06 A3042 RMK AO2 SLP302 P0008 60039 T00610061 10061 20056 56016 $
KCVG 220652Z 03015KT 4SM RA BR FEW006 BKN009 OVC013 06/06 A3041 RMK AO2 SLP299 P0013 T00560056 $
KCVG 220752Z 04015KT 3SM +RA BR OVC009 04/04 A3041 RMK AO2 SLP300 P0016 T00390039 $
KCVG 220852Z 04016KT 4SM RA BR OVC008 03/03 A3036 RMK AO2 SLP282 P0024 60053 T00330033 58021 $
KCVG 220952Z 05019KT 3SM +RA BR BKN008 BKN031 OVC042 03/03 A3035 RMK AO2 SLP281 P0015 T00330033 $
KCVG 221052Z 05014KT 3SM RA BR BKN008 OVC032 03/03 A3037 RMK AO2 SLP285 P0026 T00330033 $
KCVG 221152Z 06017KT 5SM -RA BR BKN007 BKN046 OVC075 04/04 A3035 RMK AO2 SLP280 P0009 60103 70168 T00390039 10056 20033 58002
KCVG 221252Z 08017KT 7SM -RA OVC008 04/04 A3033 RMK AO2 SLP275 P0002 T00390039
KCVG 221352Z 09016G24KT 10SM BKN008 BKN010 OVC020 04/04 A3033 RMK AO2 PK WND 09028/1316 RAE06 SLP272 P0001 T00440044